Time;durP1;ratioP1;P1;durP2;ratioP2;P2;SDS_P1;SDS_P2;PMS_P1;PMS_P2;Temp;Humidity;BMP_temperature;BMP_pressure;BME280_temperature;BME280_humidity;BME280_pressure;Samples;Min_cycle;Max_cycle;Signal;HPM_P1;HPM_P2
2021/12/31 00:01:12;;;;;;;3.70;3.40;;;13.10;99.90;;;;;;5059295;28;20632;-83
2021/12/31 00:03:38;;;;;;;4.38;3.95;;;13.10;99.90;;;;;;5059765;28;20276;-83
2021/12/31 00:06:05;;;;;;;8.27;3.58;;;13.10;99.90;;;;;;5059257;28;20551;-83
2021/12/31 00:08:31;;;;;;;5.95;3.88;;;13.00;99.90;;;;;;5058384;28;20201;-83
2021/12/31 00:10:59;;;;;;;10.05;4.45;;;13.00;99.90;;;;;;5057710;28;20170;-83
2021/12/31 00:13:29;;;;;;;7.05;4.57;;;13.00;99.90;;;;;;5058072;28;20174;-83
2021/12/31 00:15:55;;;;;;;5.32;4.55;;;13.10;99.90;;;;;;5060313;28;20186;-84
2021/12/31 00:18:21;;;;;;;6.32;4.28;;;13.10;99.90;;;;;;5059690;28;20205;-84
2021/12/31 00:20:47;;;;;;;5.15;4.60;;;13.10;99.90;;;;;;5059948;28;20163;-84
2021/12/31 00:23:15;;;;;;;6.85;4.20;;;13.10;99.90;;;;;;5059764;28;20178;-84
2021/12/31 00:25:43;;;;;;;5.80;4.55;;;13.10;99.90;;;;;;5058987;28;20300;-83
2021/12/31 00:28:10;;;;;;;6.03;4.15;;;13.00;99.90;;;;;;5059215;28;20184;-83
2021/12/31 00:30:37;;;;;;;7.55;4.40;;;13.10;99.90;;;;;;5059141;28;20190;-83
2021/12/31 00:33:04;;;;;;;4.28;3.88;;;13.10;99.90;;;;;;5061971;28;20171;-83
2021/12/31 00:35:32;;;;;;;4.70;4.30;;;13.10;99.90;;;;;;5059924;28;20205;-84
2021/12/31 00:37:58;;;;;;;6.70;4.38;;;13.10;99.90;;;;;;5059451;28;20175;-84
2021/12/31 00:40:26;;;;;;;6.60;4.18;;;13.10;99.90;;;;;;5059962;28;20178;-84
2021/12/31 00:42:52;;;;;;;4.90;3.63;;;13.10;99.90;;;;;;5060316;28;20209;-83
2021/12/31 00:45:19;;;;;;;7.93;4.28;;;13.20;99.90;;;;;;5059733;28;20194;-83
2021/12/31 00:47:46;;;;;;;6.35;3.70;;;13.20;99.90;;;;;;5059445;28;20234;-83
2021/12/31 00:50:13;;;;;;;5.13;3.58;;;13.20;99.90;;;;;;5060493;28;20198;-83
2021/12/31 00:52:39;;;;;;;3.80;3.45;;;13.20;99.90;;;;;;5061046;28;20615;-84
2021/12/31 00:55:06;;;;;;;5.75;3.75;;;13.30;99.90;;;;;;5059564;28;20190;-81
2021/12/31 00:57:32;;;;;;;6.35;4.13;;;13.30;99.90;;;;;;5059521;28;20174;-82
2021/12/31 00:59:58;;;;;;;5.53;3.55;;;13.30;99.90;;;;;;5059107;28;20189;-81
2021/12/31 01:02:27;;;;;;;6.45;4.13;;;13.30;99.90;;;;;;5059793;28;20237;-82
2021/12/31 01:04:53;;;;;;;6.70;3.45;;;13.30;99.90;;;;;;5059602;28;20227;-82
2021/12/31 01:07:19;;;;;;;9.13;3.60;;;13.30;99.90;;;;;;5059178;28;20269;-82
2021/12/31 01:09:45;;;;;;;11.73;3.70;;;13.30;99.90;;;;;;5059448;28;20701;-85
2021/12/31 01:12:13;;;;;;;8.02;3.80;;;13.30;99.90;;;;;;5058525;28;20163;-85
2021/12/31 01:14:55;;;;;;;4.68;3.67;;;13.30;99.90;;;;;;5059044;28;20202;-84
2021/12/31 01:17:37;;;;;;;4.10;3.35;;;13.30;99.90;;;;;;5058834;28;20182;-83
2021/12/31 01:20:05;;;;;;;4.57;3.30;;;13.30;99.90;;;;;;5059354;28;20545;-84
2021/12/31 01:22:32;;;;;;;6.40;3.85;;;13.30;99.90;;;;;;5060162;28;20183;-84
2021/12/31 01:24:59;;;;;;;7.25;4.20;;;13.30;99.90;;;;;;5060334;28;20190;-84
2021/12/31 01:27:25;;;;;;;5.70;3.60;;;13.30;99.90;;;;;;5056710;28;20209;-84
2021/12/31 01:29:51;;;;;;;6.63;3.38;;;13.30;99.90;;;;;;5055265;28;20199;-84
2021/12/31 01:32:16;;;;;;;4.97;3.40;;;13.40;99.90;;;;;;5057251;28;20174;-84
2021/12/31 01:34:42;;;;;;;8.05;3.35;;;13.40;99.90;;;;;;5057444;28;20181;-84
2021/12/31 01:37:10;;;;;;;4.60;3.22;;;13.40;99.90;;;;;;5068413;28;20173;-84
2021/12/31 01:39:36;;;;;;;5.80;3.38;;;13.40;99.90;;;;;;5061695;28;20654;-84
2021/12/31 01:42:06;;;;;;;3.33;3.10;;;13.40;99.90;;;;;;5060249;28;20186;-84
2021/12/31 01:44:41;;;;;;;6.43;3.53;;;13.50;99.90;;;;;;5058931;28;20189;-84
2021/12/31 01:47:15;;;;;;;5.28;3.42;;;13.40;99.90;;;;;;5058704;28;20524;-83
2021/12/31 01:49:54;;;;;;;3.97;3.50;;;13.50;99.90;;;;;;5057329;28;20252;-83
2021/12/31 01:52:19;;;;;;;3.53;3.05;;;13.50;99.90;;;;;;5056877;28;20170;-83
2021/12/31 01:54:46;;;;;;;7.70;3.35;;;13.40;99.90;;;;;;5057101;28;20611;-84
2021/12/31 01:57:12;;;;;;;5.35;3.40;;;13.40;99.90;;;;;;5056409;28;20246;-83
2021/12/31 01:59:40;;;;;;;3.53;3.10;;;13.40;99.90;;;;;;5057252;28;20599;-83
2021/12/31 02:02:07;;;;;;;5.63;3.22;;;13.40;99.90;;;;;;5056942;28;20643;-83
2021/12/31 02:04:36;;;;;;;4.63;3.10;;;13.50;99.90;;;;;;5057517;28;20182;-83
2021/12/31 02:07:02;;;;;;;3.53;3.10;;;13.50;99.90;;;;;;5057045;28;20663;-83
2021/12/31 02:09:30;;;;;;;4.32;3.20;;;13.60;99.90;;;;;;5057170;28;20221;-83
2021/12/31 02:11:56;;;;;;;3.17;2.88;;;13.60;99.90;;;;;;5056263;28;20257;-83
2021/12/31 02:14:24;;;;;;;5.63;3.28;;;13.60;99.90;;;;;;5057343;28;20206;-82
2021/12/31 02:16:51;;;;;;;8.65;3.28;;;13.60;99.90;;;;;;5057664;28;20198;-82
2021/12/31 02:19:26;;;;;;;3.75;3.25;;;13.60;99.90;;;;;;5057031;28;20571;-82
2021/12/31 02:21:52;;;;;;;6.55;3.13;;;13.60;99.90;;;;;;5057062;28;20205;-82
2021/12/31 02:24:18;;;;;;;4.25;2.70;;;13.50;99.90;;;;;;5058677;28;20189;-84
2021/12/31 02:26:44;;;;;;;4.22;3.10;;;13.50;99.90;;;;;;5057316;28;20217;-84
2021/12/31 02:29:10;;;;;;;4.38;3.03;;;13.50;99.90;;;;;;5058250;28;20202;-83
2021/12/31 02:31:36;;;;;;;3.13;2.80;;;13.50;99.90;;;;;;5059247;28;20175;-83
2021/12/31 02:34:02;;;;;;;8.43;3.40;;;13.50;99.90;;;;;;5057034;28;20284;-83
2021/12/31 02:36:28;;;;;;;3.03;2.72;;;13.50;99.90;;;;;;5057038;28;20224;-83
2021/12/31 02:38:54;;;;;;;4.63;3.50;;;13.50;99.90;;;;;;5057248;28;20659;-83
2021/12/31 02:41:19;;;;;;;4.05;2.92;;;13.50;99.90;;;;;;5059497;28;20182;-82
2021/12/31 02:43:45;;;;;;;4.50;2.83;;;13.50;99.90;;;;;;5062029;28;20175;-83
2021/12/31 02:46:11;;;;;;;5.47;3.03;;;13.50;99.90;;;;;;5059078;28;20201;-84
2021/12/31 02:48:37;;;;;;;3.65;3.17;;;13.50;99.90;;;;;;5059376;28;20548;-83
2021/12/31 02:51:03;;;;;;;5.13;3.08;;;13.60;99.90;;;;;;5059408;28;20639;-83
2021/12/31 02:53:41;;;;;;;3.03;2.75;;;13.60;99.90;;;;;;5061503;28;20171;-84
2021/12/31 02:56:12;;;;;;;3.22;2.80;;;13.70;99.90;;;;;;5059928;28;20564;-83
2021/12/31 02:58:39;;;;;;;6.05;3.10;;;13.70;99.90;;;;;;5060059;28;20269;-84
2021/12/31 03:01:07;;;;;;;4.97;3.08;;;13.70;99.90;;;;;;5060039;28;20178;-80
2021/12/31 03:03:36;;;;;;;2.92;2.72;;;13.70;99.90;;;;;;5061511;28;20182;-86
2021/12/31 03:06:03;;;;;;;6.72;3.40;;;13.70;99.90;;;;;;5062059;28;20198;-84
2021/12/31 03:08:33;;;;;;;4.97;2.90;;;13.70;99.90;;;;;;5061922;28;20218;-85
2021/12/31 03:11:01;;;;;;;5.47;2.90;;;13.60;99.90;;;;;;5060692;28;20588;-82
2021/12/31 03:13:28;;;;;;;3.35;3.00;;;13.60;99.90;;;;;;5060176;28;20171;-82
2021/12/31 03:15:54;;;;;;;5.75;3.30;;;13.60;99.90;;;;;;5060943;28;20202;-83
2021/12/31 03:18:20;;;;;;;5.22;3.20;;;13.60;99.90;;;;;;5061690;28;20545;-83
2021/12/31 03:21:00;;;;;;;3.55;2.70;;;13.60;99.90;;;;;;5061137;28;20577;-82
2021/12/31 03:23:27;;;;;;;3.67;2.80;;;13.50;99.90;;;;;;5058342;28;20173;-82
2021/12/31 03:25:53;;;;;;;3.22;2.80;;;13.50;99.90;;;;;;5059735;28;20289;-83
2021/12/31 03:28:19;;;;;;;4.13;2.90;;;13.60;99.90;;;;;;5060404;28;20640;-82
2021/12/31 03:30:46;;;;;;;4.45;3.05;;;13.60;99.90;;;;;;5059248;28;20186;-83
2021/12/31 03:33:12;;;;;;;3.78;3.05;;;13.60;99.90;;;;;;5060394;28;20175;-82
2021/12/31 03:35:37;;;;;;;3.33;3.00;;;13.60;99.90;;;;;;5061022;28;20264;-82
2021/12/31 03:38:03;;;;;;;3.33;3.03;;;13.60;99.90;;;;;;5059088;28;20209;-82
2021/12/31 03:40:29;;;;;;;3.00;2.70;;;13.50;99.90;;;;;;5059946;28;20523;-83
2021/12/31 03:42:55;;;;;;;5.43;3.00;;;13.60;99.90;;;;;;5065879;28;20170;-82
2021/12/31 03:45:21;;;;;;;2.83;2.63;;;13.60;99.90;;;;;;5060913;28;20222;-83
2021/12/31 03:47:46;;;;;;;4.03;3.00;;;13.50;99.90;;;;;;5060549;28;20209;-83
2021/12/31 03:50:12;;;;;;;3.17;2.90;;;13.50;99.90;;;;;;5060544;28;20205;-83
2021/12/31 03:52:39;;;;;;;5.90;2.90;;;13.60;99.90;;;;;;5059935;28;20182;-82
2021/12/31 03:55:07;;;;;;;3.92;2.75;;;13.60;99.90;;;;;;5060501;28;20197;-81
2021/12/31 03:57:33;;;;;;;2.90;2.70;;;13.60;99.90;;;;;;5060618;28;20178;-81
2021/12/31 03:59:59;;;;;;;4.05;2.83;;;13.60;99.90;;;;;;5060079;28;20639;-81
2021/12/31 04:02:24;;;;;;;5.38;3.13;;;13.60;99.90;;;;;;5059632;28;20214;-81
2021/12/31 04:04:50;;;;;;;3.20;2.90;;;13.50;99.90;;;;;;5058675;28;20182;-82
2021/12/31 04:07:16;;;;;;;4.72;2.90;;;13.50;99.90;;;;;;5059652;28;20178;-81
2021/12/31 04:09:42;;;;;;;5.55;2.78;;;13.50;99.90;;;;;;5059968;28;20209;-82
2021/12/31 04:12:08;;;;;;;3.63;3.28;;;13.50;99.90;;;;;;5060356;28;20186;-81
2021/12/31 04:14:33;;;;;;;3.00;2.63;;;13.50;99.90;;;;;;5060847;28;20210;-82
2021/12/31 04:16:59;;;;;;;3.45;2.95;;;13.50;99.90;;;;;;5060555;28;20593;-81
2021/12/31 04:19:25;;;;;;;3.90;2.70;;;13.50;99.90;;;;;;5061228;28;20186;-81
2021/12/31 04:21:51;;;;;;;9.65;3.55;;;13.50;99.90;;;;;;5060308;28;20185;-82
2021/12/31 04:24:51;;;;;;;3.10;2.90;;;13.50;99.90;;;;;;5061479;28;20178;-82
2021/12/31 04:27:12;;;;;;;5.80;2.97;;;13.50;99.90;;;;;;5061033;28;20660;-81
2021/12/31 04:29:38;;;;;;;5.50;2.90;;;13.50;99.90;;;;;;5059969;28;20239;-81
2021/12/31 04:32:06;;;;;;;3.70;2.88;;;13.50;99.90;;;;;;5060517;28;20174;-82
2021/12/31 04:34:32;;;;;;;7.38;3.08;;;13.50;99.90;;;;;;5062393;28;20342;-82
2021/12/31 04:36:58;;;;;;;5.50;3.17;;;13.50;99.90;;;;;;5060890;28;20202;-81
2021/12/31 04:39:24;;;;;;;4.32;3.00;;;13.50;99.90;;;;;;5058201;28;20182;-81
2021/12/31 04:41:50;;;;;;;4.22;3.38;;;13.40;99.90;;;;;;5060676;28;20178;-81
2021/12/31 04:44:16;;;;;;;3.95;2.97;;;13.50;99.90;;;;;;5068050;28;20664;-81
2021/12/31 04:46:42;;;;;;;4.45;3.08;;;13.50;99.90;;;;;;5062834;28;20697;-82
2021/12/31 04:49:08;;;;;;;4.03;2.83;;;13.40;99.90;;;;;;5060166;28;20217;-82
2021/12/31 04:51:34;;;;;;;4.47;3.10;;;13.40;99.90;;;;;;5059784;28;20197;-81
2021/12/31 04:54:00;;;;;;;5.85;2.90;;;13.40;99.90;;;;;;5060047;28;20181;-82
2021/12/31 04:56:26;;;;;;;3.17;2.88;;;13.40;99.90;;;;;;5059656;28;20195;-81
2021/12/31 04:58:51;;;;;;;3.20;2.90;;;13.40;99.90;;;;;;5060502;28;20242;-81
2021/12/31 05:01:21;;;;;;;3.15;2.95;;;13.40;99.90;;;;;;5060237;28;20221;-82
2021/12/31 05:03:50;;;;;;;3.00;2.80;;;13.30;99.90;;;;;;5060445;28;20229;-81
2021/12/31 05:06:16;;;;;;;5.68;3.25;;;13.30;99.90;;;;;;5060108;28;20232;-82
2021/12/31 05:08:42;;;;;;;5.80;3.00;;;13.30;99.90;;;;;;5060056;28;20202;-82
2021/12/31 05:11:08;;;;;;;2.97;2.78;;;13.30;99.90;;;;;;5059978;28;20182;-81
2021/12/31 05:13:34;;;;;;;5.40;2.95;;;13.30;99.90;;;;;;5059659;28;20174;-81
2021/12/31 05:16:03;;;;;;;4.22;2.80;;;13.30;99.90;;;;;;5059656;28;20237;-82
2021/12/31 05:18:29;;;;;;;2.88;2.67;;;13.30;99.90;;;;;;5059696;28;20179;-82
2021/12/31 05:20:55;;;;;;;3.97;2.80;;;13.30;99.90;;;;;;5056078;28;20178;-81
2021/12/31 05:23:21;;;;;;;6.07;3.08;;;13.30;99.90;;;;;;5054337;28;20598;-81
2021/12/31 05:25:47;;;;;;;3.83;2.80;;;13.30;99.90;;;;;;5053738;28;20759;-81
2021/12/31 05:28:13;;;;;;;2.70;2.50;;;13.30;99.90;;;;;;5053754;28;20186;-81
2021/12/31 05:30:39;;;;;;;3.53;2.70;;;13.30;99.90;;;;;;5055319;28;20167;-81
2021/12/31 05:33:04;;;;;;;3.40;2.90;;;13.30;99.90;;;;;;5053573;28;20649;-81
2021/12/31 05:35:30;;;;;;;2.90;2.70;;;13.20;99.90;;;;;;5053920;28;20202;-81
2021/12/31 05:37:57;;;;;;;4.55;3.13;;;13.20;99.90;;;;;;5053804;28;20639;-81
2021/12/31 05:40:23;;;;;;;4.45;2.67;;;13.20;99.90;;;;;;5053662;28;20190;-81
2021/12/31 05:42:49;;;;;;;3.92;2.85;;;13.20;99.90;;;;;;5053799;28;20193;-81
2021/12/31 05:45:15;;;;;;;2.85;2.65;;;13.20;99.90;;;;;;5054031;28;20198;-81
2021/12/31 05:47:40;;;;;;;5.47;2.70;;;13.20;99.90;;;;;;5054189;28;20186;-81
2021/12/31 05:50:18;;;;;;;3.60;2.90;;;13.10;99.90;;;;;;5054028;28;20683;-81
2021/12/31 05:52:44;;;;;;;4.25;2.92;;;13.10;99.90;;;;;;5054538;28;20162;-81
2021/12/31 05:55:09;;;;;;;5.95;3.35;;;13.10;99.90;;;;;;5055867;28;20200;-81
2021/12/31 05:57:35;;;;;;;3.08;2.80;;;13.00;99.90;;;;;;5054404;28;20182;-81
2021/12/31 06:00:01;;;;;;;4.35;3.13;;;13.00;99.90;;;;;;5054402;28;20190;-81
2021/12/31 06:02:27;;;;;;;3.63;3.05;;;13.00;99.90;;;;;;5054328;28;20182;-81
2021/12/31 06:04:52;;;;;;;5.93;2.97;;;12.90;99.90;;;;;;5053957;28;20182;-81
2021/12/31 06:07:18;;;;;;;4.45;2.92;;;12.90;99.90;;;;;;5053890;28;20246;-81
2021/12/31 06:09:44;;;;;;;3.20;2.90;;;12.80;99.90;;;;;;5056064;28;20209;-81
2021/12/31 06:12:09;;;;;;;3.30;3.00;;;12.80;99.90;;;;;;5057931;28;20198;-81
2021/12/31 06:14:35;;;;;;;5.63;3.00;;;12.70;99.90;;;;;;5058594;28;20225;-81
2021/12/31 06:17:06;;;;;;;3.55;2.95;;;12.70;99.90;;;;;;5063559;28;20196;-81
2021/12/31 06:19:33;;;;;;;2.90;2.70;;;12.70;99.90;;;;;;5065018;28;20181;-81
2021/12/31 06:21:59;;;;;;;3.25;2.95;;;12.70;99.90;;;;;;5064367;28;20178;-81
2021/12/31 06:24:24;;;;;;;3.35;2.97;;;12.70;99.90;;;;;;5065004;28;20642;-81
2021/12/31 06:26:50;;;;;;;2.97;2.78;;;12.70;99.90;;;;;;5064740;28;20687;-81
2021/12/31 06:29:16;;;;;;;4.75;2.70;;;12.70;99.90;;;;;;5065122;28;20206;-81
2021/12/31 06:31:41;;;;;;;3.42;3.13;;;12.70;99.90;;;;;;5066479;28;20182;-81
2021/12/31 06:34:08;;;;;;;4.22;3.10;;;12.70;99.90;;;;;;5064168;28;20208;-81
2021/12/31 06:36:34;;;;;;;3.10;2.90;;;12.70;99.90;;;;;;5070896;28;20210;-81
2021/12/31 06:39:02;;;;;;;4.28;2.92;;;12.70;99.90;;;;;;5080609;28;20658;-81
2021/12/31 06:41:28;;;;;;;4.95;3.10;;;12.60;99.90;;;;;;5062986;28;20189;-81
2021/12/31 06:43:53;;;;;;;5.65;2.97;;;12.70;99.90;;;;;;5063209;28;20182;-81
2021/12/31 06:46:20;;;;;;;3.75;2.90;;;12.70;99.90;;;;;;5063166;28;20191;-81
2021/12/31 06:48:46;;;;;;;3.25;2.95;;;12.70;99.90;;;;;;5063735;28;20238;-81
2021/12/31 06:51:12;;;;;;;4.60;3.05;;;12.80;99.90;;;;;;5062912;28;20202;-81
2021/12/31 06:53:38;;;;;;;3.65;3.42;;;12.70;99.90;;;;;;5062896;28;20174;-81
2021/12/31 06:56:05;;;;;;;4.18;3.10;;;12.70;99.90;;;;;;5063306;28;20203;-81
2021/12/31 06:58:30;;;;;;;4.30;3.10;;;12.70;99.90;;;;;;5060519;28;20174;-81
2021/12/31 07:00:56;;;;;;;4.13;3.22;;;12.70;99.90;;;;;;5059303;28;20257;-81
2021/12/31 07:03:22;;;;;;;6.30;3.28;;;12.70;99.90;;;;;;5059353;28;20177;-81
2021/12/31 07:05:47;;;;;;;3.28;3.00;;;12.60;99.90;;;;;;5059256;28;20224;-81
2021/12/31 07:08:13;;;;;;;3.90;3.15;;;12.60;99.90;;;;;;5059401;28;20174;-81
2021/12/31 07:10:39;;;;;;;6.00;3.20;;;12.60;99.90;;;;;;5059861;28;20208;-81
2021/12/31 07:13:10;;;;;;;4.00;3.10;;;12.50;99.90;;;;;;5060040;28;20174;-81
2021/12/31 07:15:48;;;;;;;6.80;3.22;;;12.50;99.90;;;;;;5060415;28;20198;-81
2021/12/31 07:18:14;;;;;;;5.88;3.30;;;12.50;99.90;;;;;;5060090;28;20185;-81
2021/12/31 07:20:40;;;;;;;5.47;3.50;;;12.40;99.90;;;;;;5060091;28;20178;-81
2021/12/31 07:23:08;;;;;;;3.67;3.13;;;12.40;99.90;;;;;;5059745;28;20711;-81
2021/12/31 07:25:35;;;;;;;4.97;3.53;;;12.40;99.90;;;;;;5059382;28;20214;-81
2021/12/31 07:28:01;;;;;;;5.20;3.15;;;12.30;99.90;;;;;;5056272;28;20171;-81
2021/12/31 07:30:27;;;;;;;4.20;3.15;;;12.30;99.90;;;;;;5057949;28;20228;-81
2021/12/31 07:32:53;;;;;;;3.22;2.95;;;12.40;99.90;;;;;;5056627;28;20171;-81
2021/12/31 07:35:20;;;;;;;3.40;2.95;;;12.40;99.90;;;;;;5057863;28;20273;-81
2021/12/31 07:37:45;;;;;;;3.25;3.05;;;12.40;99.90;;;;;;5056092;28;20205;-81
2021/12/31 07:40:12;;;;;;;5.38;3.22;;;12.40;99.90;;;;;;5056051;28;20178;-81
2021/12/31 07:42:39;;;;;;;5.03;3.30;;;12.40;99.90;;;;;;5056497;28;20198;-81
2021/12/31 07:45:06;;;;;;;3.50;3.20;;;12.50;99.90;;;;;;5057107;28;20197;-81
2021/12/31 07:47:32;;;;;;;3.13;2.90;;;12.50;99.90;;;;;;5056773;28;20556;-81
2021/12/31 07:49:57;;;;;;;3.40;2.80;;;12.50;99.90;;;;;;5056708;28;20206;-81
2021/12/31 07:52:23;;;;;;;5.38;3.30;;;12.60;99.90;;;;;;5056326;28;20174;-81
2021/12/31 07:54:49;;;;;;;7.82;3.10;;;12.60;99.90;;;;;;5056206;28;20174;-81
2021/12/31 07:57:14;;;;;;;4.15;3.30;;;12.50;99.90;;;;;;5058116;28;20182;-81
2021/12/31 07:59:40;;;;;;;5.60;3.42;;;12.60;99.90;;;;;;5057020;28;20185;-81
2021/12/31 08:02:06;;;;;;;6.32;3.20;;;12.60;99.90;;;;;;5062549;28;20182;-82
2021/12/31 08:04:33;;;;;;;4.68;3.60;;;12.60;99.90;;;;;;5074997;28;20269;-82
2021/12/31 08:06:59;;;;;;;5.35;3.25;;;12.50;99.90;;;;;;5067281;28;20217;-82
2021/12/31 08:09:24;;;;;;;2.92;2.72;;;12.60;99.90;;;;;;5062951;28;20206;-82
2021/12/31 08:11:50;;;;;;;3.40;3.10;;;12.60;99.90;;;;;;5062102;28;20170;-82
2021/12/31 08:14:16;;;;;;;4.75;3.20;;;12.50;99.90;;;;;;5060039;28;20615;-82
2021/12/31 08:16:42;;;;;;;7.10;3.35;;;12.50;99.90;;;;;;5059384;28;20194;-82
2021/12/31 08:19:08;;;;;;;5.97;2.97;;;12.60;99.90;;;;;;5055230;28;20225;-82
2021/12/31 08:21:34;;;;;;;4.70;3.13;;;12.60;99.90;;;;;;5055105;28;20182;-82
2021/12/31 08:24:00;;;;;;;5.32;3.38;;;12.60;99.90;;;;;;5055476;28;20213;-82
2021/12/31 08:26:26;;;;;;;5.43;3.38;;;12.60;99.90;;;;;;5055131;28;20245;-82
2021/12/31 08:28:51;;;;;;;3.35;3.05;;;12.60;99.90;;;;;;5055444;28;20206;-82
2021/12/31 08:31:17;;;;;;;6.03;3.40;;;12.60;99.90;;;;;;5055981;28;20206;-82
2021/12/31 08:33:43;;;;;;;3.75;3.10;;;12.60;99.90;;;;;;5056338;28;20166;-82
2021/12/31 08:36:08;;;;;;;4.60;3.33;;;12.60;99.90;;;;;;5056663;28;20190;-82
2021/12/31 08:38:34;;;;;;;7.07;3.42;;;12.60;99.90;;;;;;5057682;28;20573;-82
2021/12/31 08:41:01;;;;;;;4.22;3.28;;;12.60;99.90;;;;;;5057424;28;20557;-82
2021/12/31 08:43:27;;;;;;;3.25;2.95;;;12.60;99.90;;;;;;5057523;28;20178;-80
2021/12/31 08:45:53;;;;;;;5.40;3.00;;;12.60;99.90;;;;;;5055435;28;20217;-81
2021/12/31 08:48:19;;;;;;;5.25;3.63;;;12.60;99.90;;;;;;5056204;28;20197;-84
2021/12/31 08:50:45;;;;;;;3.42;3.13;;;12.60;99.90;;;;;;5057852;28;20183;-81
2021/12/31 08:53:13;;;;;;;5.43;3.35;;;12.60;99.90;;;;;;5054729;28;20233;-80
2021/12/31 08:55:39;;;;;;;5.65;3.45;;;12.60;99.90;;;;;;5054516;28;20194;-81
2021/12/31 08:58:06;;;;;;;6.13;3.78;;;12.60;99.90;;;;;;5055725;28;20646;-81
2021/12/31 09:00:32;;;;;;;4.32;2.92;;;12.60;99.90;;;;;;5054971;28;20178;-81
2021/12/31 09:02:57;;;;;;;3.75;3.00;;;12.70;99.90;;;;;;5055036;28;20186;-81
2021/12/31 09:05:23;;;;;;;6.07;3.10;;;12.70;99.90;;;;;;5055413;28;20679;-81
2021/12/31 09:07:51;;;;;;;3.47;3.17;;;12.70;99.90;;;;;;5056136;28;20174;-81
2021/12/31 09:10:17;;;;;;;4.25;3.20;;;12.70;99.90;;;;;;5056703;28;20203;-81
2021/12/31 09:12:46;;;;;;;3.90;3.25;;;12.80;99.90;;;;;;5056717;28;20662;-81
2021/12/31 09:15:13;;;;;;;3.42;3.13;;;12.80;99.90;;;;;;5056912;28;20191;-81
2021/12/31 09:17:39;;;;;;;3.70;3.05;;;12.90;99.90;;;;;;5055309;28;20177;-81
2021/12/31 09:20:06;;;;;;;3.65;3.30;;;12.90;99.90;;;;;;5055483;28;20189;-81
2021/12/31 09:22:32;;;;;;;3.40;3.10;;;12.90;99.90;;;;;;5055403;28;20182;-81
2021/12/31 09:24:58;;;;;;;3.35;3.05;;;12.90;99.90;;;;;;5055061;28;20205;-81
2021/12/31 09:27:25;;;;;;;3.05;2.83;;;12.90;99.90;;;;;;5055950;28;20627;-82
2021/12/31 09:29:51;;;;;;;3.55;3.17;;;13.00;99.90;;;;;;5055857;28;20206;-81
2021/12/31 09:32:17;;;;;;;3.40;3.10;;;13.00;99.90;;;;;;5055317;28;20197;-82
2021/12/31 09:34:44;;;;;;;3.03;2.83;;;13.00;99.90;;;;;;5056681;28;20177;-81
2021/12/31 09:37:13;;;;;;;3.78;2.75;;;13.00;99.90;;;;;;5054696;28;20369;-82
2021/12/31 09:39:39;;;;;;;3.50;2.83;;;13.00;99.90;;;;;;5055071;28;20552;-81
2021/12/31 09:42:05;;;;;;;3.38;2.90;;;13.10;99.90;;;;;;5054190;28;20182;-81
2021/12/31 09:44:33;;;;;;;3.25;2.88;;;13.10;99.90;;;;;;5054655;28;20174;-82
2021/12/31 09:46:58;;;;;;;3.33;2.90;;;13.20;99.90;;;;;;5054639;28;20221;-82
2021/12/31 09:49:24;;;;;;;2.92;2.72;;;13.20;99.90;;;;;;5056004;28;20561;-82
2021/12/31 09:51:51;;;;;;;5.75;3.10;;;13.20;99.90;;;;;;5053973;28;20177;-81
2021/12/31 09:54:21;;;;;;;2.83;2.63;;;13.30;99.90;;;;;;5053600;28;20220;-81
2021/12/31 09:56:49;;;;;;;4.63;3.10;;;13.30;99.90;;;;;;5053508;28;20194;-81
2021/12/31 09:59:15;;;;;;;3.17;2.88;;;13.40;99.90;;;;;;5053219;28;20187;-81
2021/12/31 10:01:48;;;;;;;3.80;2.90;;;13.50;99.90;;;;;;5053115;28;20193;-81
2021/12/31 10:04:14;;;;;;;3.70;2.70;;;13.60;99.90;;;;;;5053179;28;20195;-81
2021/12/31 10:07:05;;;;;;;4.63;3.28;;;13.60;99.90;;;;;;5053391;28;20583;-81
2021/12/31 10:09:31;;;;;;;5.32;2.80;;;13.60;99.90;;;;;;5053610;28;20202;-82
2021/12/31 10:11:57;;;;;;;3.20;2.90;;;13.60;99.90;;;;;;5053133;28;20179;-81
2021/12/31 10:14:37;;;;;;;3.00;2.80;;;13.70;99.90;;;;;;5053411;28;20181;-81
2021/12/31 10:17:05;;;;;;;3.00;2.80;;;13.70;99.90;;;;;;5054460;28;20189;-81
2021/12/31 10:19:30;;;;;;;3.33;2.70;;;13.70;99.90;;;;;;5053728;28;20181;-81
2021/12/31 10:21:56;;;;;;;2.90;2.60;;;13.70;99.90;;;;;;5053495;28;20182;-81
2021/12/31 10:24:25;;;;;;;3.00;2.80;;;13.70;99.90;;;;;;5054164;28;20182;-82
2021/12/31 10:26:53;;;;;;;2.85;2.70;;;13.70;99.90;;;;;;5055305;28;20566;-82
2021/12/31 10:29:21;;;;;;;2.78;2.58;;;13.70;99.90;;;;;;5053259;28;20239;-81
2021/12/31 10:31:51;;;;;;;3.05;2.75;;;13.80;99.90;;;;;;5053079;28;20178;-81
2021/12/31 10:34:32;;;;;;;3.40;2.70;;;13.80;99.90;;;;;;5052726;28;20178;-82
2021/12/31 10:37:20;;;;;;;2.80;2.50;;;13.80;99.90;;;;;;5052833;28;20194;-82
2021/12/31 10:39:56;;;;;;;2.40;2.30;;;13.80;99.90;;;;;;5053025;28;20218;-81
2021/12/31 10:42:31;;;;;;;3.20;2.90;;;13.90;99.90;;;;;;5053152;28;20261;-82
2021/12/31 10:44:58;;;;;;;3.45;2.88;;;13.90;99.90;;;;;;5053939;28;20171;-82
2021/12/31 10:47:49;;;;;;;3.90;2.78;;;14.00;99.90;;;;;;5053490;28;20179;-82
2021/12/31 10:50:19;;;;;;;3.42;2.92;;;14.10;99.90;;;;;;5053615;28;20572;-82
2021/12/31 10:53:07;;;;;;;2.95;2.75;;;14.20;99.90;;;;;;5052931;28;20198;-82
2021/12/31 10:55:39;;;;;;;2.92;2.72;;;14.20;99.90;;;;;;5054087;28;20195;-85
2021/12/31 10:58:07;;;;;;;3.00;2.70;;;14.20;99.90;;;;;;5053710;28;20695;-85
2021/12/31 11:00:35;;;;;;;3.90;2.88;;;14.10;99.90;;;;;;5052860;28;20170;-83
2021/12/31 11:03:02;;;;;;;3.33;2.70;;;14.00;99.90;;;;;;5055903;28;20220;-84
2021/12/31 11:05:28;;;;;;;3.17;2.60;;;14.00;99.90;;;;;;5056923;28;20198;-84
2021/12/31 11:07:59;;;;;;;3.08;2.78;;;14.00;99.90;;;;;;5058421;28;20174;-83
2021/12/31 11:10:26;;;;;;;3.60;3.08;;;13.90;99.90;;;;;;5059322;28;20221;-84
2021/12/31 11:12:53;;;;;;;3.35;3.15;;;14.00;99.90;;;;;;5058704;28;20201;-84
2021/12/31 11:15:19;;;;;;;5.97;4.70;;;14.00;99.90;;;;;;5060027;28;20682;-84
2021/12/31 11:17:45;;;;;;;3.55;2.80;;;14.10;99.90;;;;;;5060190;28;20179;-84
2021/12/31 11:20:19;;;;;;;3.60;2.80;;;14.10;99.90;;;;;;5061996;28;20181;-84
2021/12/31 11:22:44;;;;;;;3.67;2.70;;;14.10;99.90;;;;;;5058139;28;20658;-84
2021/12/31 11:25:27;;;;;;;2.90;2.70;;;14.00;99.90;;;;;;5056083;28;20210;-83
2021/12/31 11:27:57;;;;;;;2.97;2.70;;;14.00;99.90;;;;;;5058218;28;20166;-83
2021/12/31 11:30:43;;;;;;;3.22;2.40;;;13.90;99.90;;;;;;5056207;28;20194;-84
2021/12/31 11:33:15;;;;;;;3.08;2.83;;;13.90;99.90;;;;;;5057187;28;20154;-84
2021/12/31 11:36:00;;;;;;;2.85;2.58;;;13.80;99.90;;;;;;5057530;28;20278;-84
2021/12/31 11:38:26;;;;;;;3.30;3.00;;;13.70;99.90;;;;;;5060546;28;20179;-84
2021/12/31 11:41:03;;;;;;;3.42;2.83;;;13.70;99.90;;;;;;5060440;28;20181;-84
2021/12/31 11:43:31;;;;;;;3.20;2.90;;;13.70;99.90;;;;;;5058827;28;20238;-84
2021/12/31 11:46:22;;;;;;;3.10;2.90;;;13.70;99.90;;;;;;5058112;28;20207;-85
2021/12/31 11:48:56;;;;;;;2.80;2.70;;;13.60;99.90;;;;;;5059763;28;20278;-84
2021/12/31 11:51:34;;;;;;;3.90;2.58;;;13.60;99.90;;;;;;5057833;28;20181;-84
2021/12/31 11:54:00;;;;;;;4.07;3.00;;;13.60;99.90;;;;;;5056834;28;20175;-84
2021/12/31 11:56:40;;;;;;;3.10;2.90;;;13.60;99.90;;;;;;5056064;28;20254;-84
2021/12/31 11:59:09;;;;;;;3.22;2.92;;;13.60;99.90;;;;;;5057596;28;20169;-83
2021/12/31 12:01:52;;;;;;;5.35;3.00;;;13.60;99.90;;;;;;5057965;28;20210;-84
2021/12/31 12:04:32;;;;;;;3.65;2.80;;;13.70;99.90;;;;;;5070320;28;20166;-84
2021/12/31 12:07:03;;;;;;;3.33;3.03;;;13.70;99.90;;;;;;5061439;28;20201;-86
2021/12/31 12:09:40;;;;;;;3.13;2.85;;;13.80;99.90;;;;;;5061044;28;20674;-84
2021/12/31 12:12:08;;;;;;;3.33;3.03;;;13.80;99.90;;;;;;5060244;28;20209;-84
2021/12/31 12:14:41;;;;;;;2.90;2.70;;;13.80;99.90;;;;;;5058773;28;20171;-84
2021/12/31 12:17:14;;;;;;;5.53;3.20;;;13.80;99.90;;;;;;5061198;28;20277;-84
2021/12/31 12:19:46;;;;;;;3.00;2.80;;;13.80;99.90;;;;;;5060006;28;20170;-84
2021/12/31 12:22:51;;;;;;;3.22;2.92;;;13.80;99.90;;;;;;5060530;28;20243;-84
2021/12/31 12:25:18;;;;;;;3.45;2.90;;;13.80;99.90;;;;;;5060851;28;20206;-84
2021/12/31 12:27:47;;;;;;;3.63;2.88;;;13.90;99.90;;;;;;5059472;28;20183;-84
2021/12/31 12:30:14;;;;;;;3.08;2.78;;;13.90;99.90;;;;;;5059694;28;20205;-84
2021/12/31 12:35:16;;;;;;;2.80;2.60;;;13.90;99.90;;;;;;5060674;28;20204;-84
2021/12/31 12:37:43;;;;;;;3.25;2.80;;;13.90;99.90;;;;;;5058216;28;20179;-84
2021/12/31 12:40:10;;;;;;;2.90;2.70;;;14.00;99.90;;;;;;5056903;28;20194;-84
2021/12/31 12:42:36;;;;;;;2.95;2.72;;;13.90;99.90;;;;;;5056818;28;20655;-84
2021/12/31 12:45:07;;;;;;;3.20;2.90;;;14.00;99.90;;;;;;5056783;28;20209;-84
2021/12/31 12:47:35;;;;;;;3.45;3.15;;;14.20;99.90;;;;;;5057112;28;20182;-84
2021/12/31 12:50:04;;;;;;;2.95;2.70;;;14.20;99.90;;;;;;5057418;28;20210;-84
2021/12/31 12:52:30;;;;;;;3.70;2.97;;;14.40;99.90;;;;;;5055865;28;20182;-86
2021/12/31 12:55:13;;;;;;;3.58;3.10;;;14.50;99.90;;;;;;5055776;28;20639;-86